Time;durP1;ratioP1;P1;durP2;ratioP2;P2;SDS_P1;SDS_P2;PMS_P1;PMS_P2;Temp;Humidity;BMP_temperature;BMP_pressure;BME280_temperature;BME280_humidity;BME280_pressure;Samples;Min_cycle;Max_cycle;Signal;HPM_P1;HPM_P2
2022/04/30 00:02:15;;;;;;;1.50;0.52;;;;;;;19.74;45.41;101226.56;5029141;28;20033;-58
2022/04/30 00:04:42;;;;;;;2.05;0.50;;;;;;;19.75;45.26;101230.03;5027853;28;20474;-60
2022/04/30 00:07:08;;;;;;;1.02;0.50;;;;;;;19.74;45.34;101226.56;5027758;28;20030;-57
2022/04/30 00:09:35;;;;;;;1.63;0.60;;;;;;;19.74;45.50;101226.56;5027914;28;20136;-59
2022/04/30 00:12:01;;;;;;;1.55;0.40;;;;;;;19.74;45.38;101226.56;5025709;28;20057;-56
2022/04/30 00:14:27;;;;;;;0.80;0.52;;;;;;;19.74;45.38;101216.00;5026399;28;20084;-56
2022/04/30 00:16:53;;;;;;;1.90;0.52;;;;;;;19.75;45.54;101216.81;5026604;28;20492;-58
2022/04/30 00:19:20;;;;;;;2.45;0.50;;;;;;;19.75;45.50;101216.81;5027751;28;20374;-59
2022/04/30 00:21:46;;;;;;;1.40;0.60;;;;;;;19.75;45.58;101216.81;5026121;28;20028;-57
2022/04/30 00:24:12;;;;;;;1.42;0.50;;;;;;;19.74;45.41;101209.88;5027447;28;20033;-57
2022/04/30 00:26:37;;;;;;;1.65;0.65;;;;;;;19.73;45.54;101209.06;5026279;28;20034;-55
2022/04/30 00:29:03;;;;;;;2.33;0.52;;;;;;;19.73;45.49;101208.25;5025902;28;20029;-58
2022/04/30 00:31:28;;;;;;;1.90;0.40;;;;;;;19.73;45.76;101202.97;5027887;28;20124;-59
2022/04/30 00:33:55;;;;;;;2.65;0.70;;;;;;;19.72;45.61;101207.41;5027581;28;20346;-52
2022/04/30 00:36:20;;;;;;;2.88;0.50;;;;;;;19.72;45.73;101204.78;5026414;28;20073;-57
2022/04/30 00:38:45;;;;;;;1.30;0.50;;;;;;;19.71;45.84;101199.69;5026833;28;20033;-55
2022/04/30 00:41:11;;;;;;;1.95;0.45;;;;;;;19.71;45.50;101203.13;5027262;28;20405;-52
2022/04/30 00:43:47;;;;;;;1.33;0.60;;;;;;;19.68;45.69;101197.41;5024551;28;20521;-53
2022/04/30 00:46:17;;;;;;;1.10;0.40;;;;;;;19.68;45.62;101192.94;5028165;28;20036;-58
2022/04/30 00:48:43;;;;;;;1.30;0.50;;;;;;;19.70;45.77;101198.84;5026846;28;20133;-57
2022/04/30 00:51:10;;;;;;;2.63;0.50;;;;;;;19.70;45.48;101198.03;5027377;28;20152;-53
2022/04/30 00:53:40;;;;;;;1.67;0.60;;;;;;;19.68;45.49;101200.88;5026881;28;20551;-61
2022/04/30 00:56:09;;;;;;;2.85;0.70;;;;;;;19.68;45.79;101195.59;5024869;28;20184;-59
2022/04/30 00:58:37;;;;;;;1.23;0.50;;;;;;;19.68;45.70;101186.84;5026773;28;20116;-59
2022/04/30 01:01:04;;;;;;;1.45;0.50;;;;;;;19.68;45.65;101194.75;5026646;28;20031;-57
2022/04/30 01:03:30;;;;;;;0.98;0.40;;;;;;;19.68;45.73;101194.75;5026163;28;20187;-56
2022/04/30 01:05:55;;;;;;;0.90;0.40;;;;;;;19.68;45.66;101184.19;5026441;28;20116;-57
2022/04/30 01:08:22;;;;;;;1.42;0.52;;;;;;;19.69;45.63;101188.47;5027165;28;20061;-58
2022/04/30 01:10:47;;;;;;;1.67;0.50;;;;;;;19.69;45.72;101186.66;5025057;28;20043;-52
2022/04/30 01:13:14;;;;;;;1.77;0.47;;;;;;;19.71;45.74;101189.09;5025558;28;20053;-55
2022/04/30 01:15:40;;;;;;;0.80;0.40;;;;;;;19.72;45.47;101182.81;5026883;28;20076;-58
2022/04/30 01:18:10;;;;;;;2.00;0.50;;;;;;;19.74;45.55;101188.72;5027684;28;20473;-57
2022/04/30 01:20:38;;;;;;;1.00;0.57;;;;;;;19.75;45.65;101191.19;5025628;28;20026;-56
2022/04/30 01:23:05;;;;;;;0.70;0.47;;;;;;;19.76;45.68;101192.00;5026847;28;20049;-56
2022/04/30 01:25:31;;;;;;;1.55;0.60;;;;;;;19.76;45.48;101192.81;5025377;28;20030;-54
2022/04/30 01:28:01;;;;;;;1.48;0.40;;;;;;;19.76;45.42;101189.38;5026075;28;20457;-60
2022/04/30 01:30:28;;;;;;;1.88;0.50;;;;;;;19.77;45.40;101191.81;5023018;28;20116;-59
2022/04/30 01:38:21;;;;;;;1.75;0.65;;;;;;;19.73;45.59;101176.53;5025705;28;20091;-56
2022/04/30 01:40:47;;;;;;;1.17;0.50;;;;;;;19.73;45.65;101179.16;5025423;28;20029;-57
2022/04/30 01:43:15;;;;;;;0.70;0.50;;;;;;;19.74;45.67;101175.50;5025798;28;20040;-59
2022/04/30 01:45:41;;;;;;;2.03;0.60;;;;;;;19.72;45.42;101170.41;5024232;28;20030;-62
2022/04/30 01:48:12;;;;;;;2.08;0.50;;;;;;;19.72;45.45;101166.94;5027201;28;20449;-55
2022/04/30 01:50:38;;;;;;;0.90;0.43;;;;;;;19.71;45.62;101167.97;5024296;28;20554;-60
2022/04/30 01:53:03;;;;;;;2.08;0.60;;;;;;;19.69;45.40;101160.22;5025660;28;20045;-54
2022/04/30 01:55:29;;;;;;;0.93;0.57;;;;;;;19.71;45.56;101162.66;5025081;28;20033;-57
2022/04/30 01:57:56;;;;;;;1.58;0.40;;;;;;;19.71;45.37;101165.31;5025139;28;20067;-51
2022/04/30 02:00:22;;;;;;;1.05;0.60;;;;;;;19.69;45.63;101160.22;5025849;28;20048;-55
2022/04/30 02:02:50;;;;;;;1.60;0.50;;;;;;;19.68;45.46;101150.66;5025123;28;20037;-58
2022/04/30 02:05:18;;;;;;;1.20;0.73;;;;;;;19.69;45.46;101154.09;5025467;28;20034;-58
2022/04/30 02:07:49;;;;;;;1.05;0.40;;;;;;;19.67;45.48;101151.66;5021995;28;20052;-56
2022/04/30 02:12:51;;;;;;;1.55;0.60;;;;;;;19.67;45.65;101142.91;5183355;22;20082;-48
2022/04/30 02:15:19;;;;;;;1.30;0.43;;;;;;;19.67;45.61;101142.91;5026826;28;20025;-50
2022/04/30 02:17:46;;;;;;;1.65;0.50;;;;;;;19.66;45.50;101139.44;5026812;28;20055;-50
2022/04/30 02:20:24;;;;;;;1.35;0.40;;;;;;;19.68;45.66;101137.44;5026807;28;20037;-51
2022/04/30 02:22:52;;;;;;;2.35;0.75;;;;;;;19.67;45.32;101132.31;5025550;28;20068;-48
2022/04/30 02:25:19;;;;;;;1.95;0.40;;;;;;;19.67;45.54;101124.41;5026692;28;20069;-48
2022/04/30 02:27:56;;;;;;;1.05;0.50;;;;;;;19.66;45.44;101123.56;5026694;28;20096;-52
2022/04/30 02:30:23;;;;;;;0.98;0.40;;;;;;;19.66;45.62;101133.31;5025914;28;20405;-47
2022/04/30 02:32:55;;;;;;;0.90;0.50;;;;;;;19.66;45.55;101128.03;5024899;28;20032;-50
2022/04/30 02:35:26;;;;;;;2.00;0.60;;;;;;;19.66;45.35;101117.47;5026276;28;20030;-49
2022/04/30 02:37:54;;;;;;;1.55;0.60;;;;;;;19.66;45.32;101120.13;5026396;28;20580;-50
2022/04/30 02:40:21;;;;;;;1.00;0.57;;;;;;;19.66;45.39;101123.56;5026587;28;20025;-47
2022/04/30 02:42:47;;;;;;;0.90;0.40;;;;;;;19.66;45.41;101120.13;5026556;28;20021;-51
2022/04/30 02:45:15;;;;;;;1.75;0.40;;;;;;;19.64;45.24;101115.00;5028983;28;20045;-47
2022/04/30 02:47:45;;;;;;;1.40;0.40;;;;;;;19.65;45.17;101113.19;5030477;28;20452;-49
2022/04/30 02:50:15;;;;;;;1.85;0.47;;;;;;;19.64;45.18;101109.72;5030528;28;20040;-50
2022/04/30 02:52:42;;;;;;;1.38;0.50;;;;;;;19.63;45.18;101116.03;5030466;28;20045;-48
2022/04/30 02:55:09;;;;;;;1.30;0.35;;;;;;;19.64;44.99;101108.91;5030269;28;20029;-48
2022/04/30 03:00:34;;;;;;;2.33;0.50;;;;;;;19.62;45.19;101116.22;5030614;28;20052;-46
2022/04/30 03:03:00;;;;;;;1.30;0.60;;;;;;;19.62;45.30;101108.28;5030089;28;20037;-49
2022/04/30 03:05:26;;;;;;;1.35;0.60;;;;;;;19.63;45.13;101118.66;5030086;28;20025;-47
2022/04/30 03:07:53;;;;;;;1.55;0.95;;;;;;;19.65;44.89;101115.84;5030042;28;20033;-48
2022/04/30 03:10:20;;;;;;;1.30;0.50;;;;;;;19.65;45.03;101121.94;5030252;28;20038;-50
2022/04/30 03:12:45;;;;;;;1.63;0.73;;;;;;;19.66;44.80;101112.19;5029367;28;20173;-50
2022/04/30 03:15:11;;;;;;;1.23;0.50;;;;;;;19.66;44.86;101117.47;5029981;28;20155;-48
2022/04/30 03:23:06;;;;;;;0.80;0.30;;;;;;;19.67;45.26;101114.63;5029936;28;20049;-55
2022/04/30 03:25:32;;;;;;;1.27;0.50;;;;;;;19.69;45.56;101111.81;5029540;28;20030;-56
2022/04/30 03:27:57;;;;;;;2.10;0.40;;;;;;;19.71;45.36;101109.78;5029760;28;20112;-52
2022/04/30 03:30:25;;;;;;;1.00;0.40;;;;;;;19.69;45.32;101109.97;5029911;28;20029;-48
2022/04/30 03:32:52;;;;;;;1.25;0.50;;;;;;;19.68;45.32;101105.69;5029659;28;20037;-54
2022/04/30 03:35:17;;;;;;;1.25;0.63;;;;;;;19.69;45.38;101114.44;5029404;28;20088;-50
2022/04/30 03:37:43;;;;;;;1.63;0.45;;;;;;;19.67;45.24;101111.19;5029639;28;20026;-50
2022/04/30 03:40:10;;;;;;;2.92;0.50;;;;;;;19.66;45.24;101107.72;5029618;28;20472;-54
2022/04/30 03:42:36;;;;;;;2.20;0.50;;;;;;;19.66;45.07;101115.66;5029460;28;20033;-50
2022/04/30 03:45:03;;;;;;;1.00;0.57;;;;;;;19.65;45.14;101115.84;5029294;28;20028;-49
2022/04/30 03:47:28;;;;;;;2.80;0.95;;;;;;;19.65;45.05;101129.88;5029251;28;20486;-50
2022/04/30 03:49:54;;;;;;;2.58;0.40;;;;;;;19.64;45.16;101119.47;5029183;28;20041;-55
2022/04/30 03:52:19;;;;;;;2.15;0.68;;;;;;;19.65;45.25;101118.47;5029121;28;20048;-50
2022/04/30 03:54:45;;;;;;;3.65;0.57;;;;;;;19.64;45.25;101119.47;5029230;28;20037;-53
2022/04/30 03:57:10;;;;;;;1.42;0.50;;;;;;;19.64;45.33;101120.28;5028449;28;20029;-54
2022/04/30 03:59:36;;;;;;;1.85;0.40;;;;;;;19.63;45.23;101129.25;5029017;28;20155;-52
2022/04/30 04:02:01;;;;;;;0.93;0.40;;;;;;;19.62;45.03;101117.03;5029324;28;20029;-49
2022/04/30 04:04:29;;;;;;;2.25;0.55;;;;;;;19.62;45.19;101121.50;5027849;28;20475;-46
2022/04/30 04:06:55;;;;;;;1.20;0.55;;;;;;;19.62;45.19;101124.13;5028932;28;20057;-52
2022/04/30 04:09:21;;;;;;;2.35;0.50;;;;;;;19.62;45.10;101118.84;5029003;28;20029;-47
2022/04/30 04:11:47;;;;;;;1.23;0.40;;;;;;;19.61;45.37;101123.31;5028816;28;20215;-53
2022/04/30 04:19:40;;;;;;;1.23;0.40;;;;;;;19.60;45.13;101131.44;5028992;28;20523;-47
2022/04/30 04:22:06;;;;;;;1.63;0.52;;;;;;;19.60;45.33;101123.50;5028584;28;20052;-46
2022/04/30 04:27:17;;;;;;;1.13;0.40;;;;;;;19.58;45.06;101126.34;5028918;28;20063;-53
2022/04/30 04:29:42;;;;;;;0.93;0.40;;;;;;;19.60;45.22;101131.44;5028429;28;20033;-48
2022/04/30 04:32:08;;;;;;;1.27;0.40;;;;;;;19.59;45.00;101130.63;5028346;28;20031;-48
2022/04/30 04:34:33;;;;;;;3.63;0.60;;;;;;;19.60;45.12;101128.78;5028755;28;20124;-52
2022/04/30 04:36:59;;;;;;;0.90;0.35;;;;;;;19.60;45.25;101134.06;5028514;28;20052;-51
2022/04/30 04:39:24;;;;;;;2.60;0.70;;;;;;;19.60;44.85;101134.06;5028580;28;20021;-47
2022/04/30 04:41:49;;;;;;;0.95;0.40;;;;;;;19.58;45.07;101130.81;5028869;28;20456;-47
2022/04/30 04:44:15;;;;;;;1.40;0.40;;;;;;;19.59;44.92;101135.09;5028357;28;20117;-51
2022/04/30 04:46:41;;;;;;;1.08;0.40;;;;;;;19.60;45.16;101128.78;5028412;28;20051;-53
2022/04/30 04:49:08;;;;;;;0.85;0.40;;;;;;;19.59;44.96;101135.91;5028496;28;20036;-49
2022/04/30 04:51:34;;;;;;;0.70;0.40;;;;;;;19.59;44.90;101133.25;5028335;28;20041;-49
2022/04/30 04:54:01;;;;;;;4.20;0.50;;;;;;;19.60;45.05;101126.16;5027918;28;20037;-50
2022/04/30 04:56:27;;;;;;;1.58;0.40;;;;;;;19.60;45.00;101131.44;5027975;28;20018;-54
2022/04/30 04:58:52;;;;;;;1.40;0.40;;;;;;;19.59;44.96;101127.97;5028015;28;20396;-52
2022/04/30 05:01:18;;;;;;;0.85;0.43;;;;;;;19.61;45.04;101130.44;5027873;28;20030;-51
2022/04/30 05:03:43;;;;;;;1.15;0.50;;;;;;;19.61;44.97;101133.06;5027842;28;20029;-46
2022/04/30 05:06:09;;;;;;;1.00;0.50;;;;;;;19.61;44.85;101131.25;5027704;28;20076;-53
2022/04/30 05:08:34;;;;;;;1.05;0.43;;;;;;;19.62;44.96;101138.16;5027810;28;20120;-48
2022/04/30 05:11:00;;;;;;;0.80;0.40;;;;;;;19.63;44.68;101134.53;5027969;28;20264;-54
2022/04/30 05:13:25;;;;;;;1.15;0.40;;;;;;;19.63;44.73;101129.25;5027471;28;20041;-48
2022/04/30 05:15:51;;;;;;;0.80;0.40;;;;;;;19.64;44.78;101130.06;5027561;28;20046;-46
2022/04/30 05:18:16;;;;;;;1.92;0.40;;;;;;;19.65;44.62;101127.22;5027460;28;20067;-51
2022/04/30 05:20:42;;;;;;;2.25;0.50;;;;;;;19.65;44.83;101131.69;5027757;28;20035;-45
2022/04/30 05:23:07;;;;;;;2.65;0.43;;;;;;;19.66;44.86;101128.03;5027628;28;20039;-42
2022/04/30 05:25:32;;;;;;;0.95;0.40;;;;;;;19.66;44.47;101128.03;5027397;28;20044;-51
2022/04/30 05:27:58;;;;;;;1.77;0.40;;;;;;;19.66;44.70;101125.41;5027610;28;20021;-50
2022/04/30 05:30:24;;;;;;;2.08;0.50;;;;;;;19.67;44.57;101140.25;5027494;28;20033;-53
2022/04/30 05:32:50;;;;;;;1.48;0.40;;;;;;;19.66;44.70;101128.03;5027657;28;20042;-52
2022/04/30 05:35:16;;;;;;;1.25;0.40;;;;;;;19.66;44.81;101120.13;5027448;28;20041;-48
2022/04/30 05:37:41;;;;;;;1.23;0.30;;;;;;;19.65;44.97;101129.88;5027479;28;20385;-50
2022/04/30 05:40:07;;;;;;;0.90;0.40;;;;;;;19.65;44.66;101126.41;5027380;28;20094;-47
2022/04/30 05:42:33;;;;;;;1.42;0.40;;;;;;;19.66;44.86;101126.22;5027164;28;20052;-51
2022/04/30 05:45:01;;;;;;;1.55;0.40;;;;;;;19.65;44.98;101131.69;5027543;28;20025;-53
2022/04/30 05:47:26;;;;;;;1.27;0.40;;;;;;;19.64;45.03;101122.13;5027440;28;20091;-55
2022/04/30 05:49:52;;;;;;;0.82;0.30;;;;;;;19.64;44.95;101120.28;5027223;28;20029;-51
2022/04/30 05:52:19;;;;;;;0.70;0.30;;;;;;;19.64;44.97;101119.47;5027057;28;20037;-50
2022/04/30 05:54:45;;;;;;;1.83;0.43;;;;;;;19.64;45.09;101127.41;5026878;28;20064;-50
2022/04/30 05:57:11;;;;;;;2.35;0.57;;;;;;;19.63;45.04;101118.66;5027065;28;20056;-46
2022/04/30 05:59:36;;;;;;;1.67;0.60;;;;;;;19.63;44.96;101123.13;5027295;28;20030;-52
2022/04/30 06:02:02;;;;;;;0.60;0.30;;;;;;;19.63;45.06;101116.03;5027107;28;20420;-49
2022/04/30 06:04:28;;;;;;;0.98;0.30;;;;;;;19.63;45.22;101112.56;5025239;28;20041;-51
2022/04/30 06:06:53;;;;;;;0.90;0.52;;;;;;;19.62;44.97;101117.03;5026664;28;20112;-52
2022/04/30 06:09:20;;;;;;;1.77;0.55;;;;;;;19.62;45.21;101113.56;5026859;28;20104;-47
2022/04/30 06:11:47;;;;;;;1.08;0.40;;;;;;;19.62;45.07;101116.22;5026158;28;20300;-53
2022/04/30 06:14:12;;;;;;;1.17;0.40;;;;;;;19.62;45.10;101124.13;5026668;28;20033;-47
2022/04/30 06:16:38;;;;;;;2.72;0.40;;;;;;;19.62;45.25;101113.56;5026544;28;20357;-48
2022/04/30 06:19:03;;;;;;;1.42;0.50;;;;;;;19.62;45.44;101113.56;5026162;28;20084;-50
2022/04/30 06:21:29;;;;;;;0.90;0.30;;;;;;;19.61;45.29;101109.28;5026333;28;20118;-45
2022/04/30 06:23:54;;;;;;;2.05;0.60;;;;;;;19.61;45.42;101111.94;5026965;28;20041;-45
2022/04/30 06:26:19;;;;;;;1.00;0.40;;;;;;;19.60;45.29;101107.66;5025015;28;20489;-46
2022/04/30 06:28:45;;;;;;;0.90;0.40;;;;;;;19.60;45.47;101107.66;5026829;28;20033;-46
2022/04/30 06:31:10;;;;;;;1.00;0.40;;;;;;;19.60;45.46;101102.34;5026552;28;20025;-47
2022/04/30 06:33:35;;;;;;;1.20;0.30;;;;;;;19.60;45.33;101108.47;5026386;28;20124;-44
2022/04/30 06:36:01;;;;;;;1.45;0.50;;;;;;;19.61;45.44;101104.00;5026467;28;20029;-46
2022/04/30 06:38:27;;;;;;;1.33;0.40;;;;;;;19.61;45.27;101102.16;5026383;28;20682;-47
2022/04/30 06:40:53;;;;;;;0.80;0.40;;;;;;;19.61;45.30;101104.00;5026101;28;20065;-46
2022/04/30 06:43:18;;;;;;;1.10;0.40;;;;;;;19.60;45.30;101100.53;5026460;28;20025;-48
2022/04/30 06:45:43;;;;;;;1.95;0.50;;;;;;;19.61;45.28;101098.72;5026759;28;20025;-47
2022/04/30 06:48:09;;;;;;;1.00;0.50;;;;;;;19.61;45.37;101098.72;5026248;28;20128;-48
2022/04/30 06:50:34;;;;;;;1.15;0.40;;;;;;;19.62;45.34;101100.34;5026687;28;20182;-43
2022/04/30 06:58:40;;;;;;;1.40;0.30;;;;;;;19.60;45.45;101097.88;5026667;28;20052;-47
2022/04/30 07:03:31;;;;;;;1.23;0.50;;;;;;;19.60;45.46;101094.44;5026460;28;20121;-48
2022/04/30 07:06:04;;;;;;;1.02;0.40;;;;;;;19.62;45.31;101095.06;5026237;28;20045;-46
2022/04/30 07:08:33;;;;;;;1.02;0.35;;;;;;;19.62;45.28;101084.50;5026315;28;20057;-45
2022/04/30 07:11:03;;;;;;;1.35;0.45;;;;;;;19.62;45.27;101085.31;5026436;28;20110;-49
2022/04/30 07:13:31;;;;;;;0.80;0.40;;;;;;;19.64;45.24;101085.13;5025947;28;20049;-49
2022/04/30 07:15:58;;;;;;;1.77;0.45;;;;;;;19.64;45.19;101093.06;5026055;28;20153;-46
2022/04/30 07:18:23;;;;;;;1.23;0.40;;;;;;;19.64;45.17;101078.00;5025909;28;20053;-48
2022/04/30 07:20:49;;;;;;;2.35;0.40;;;;;;;19.65;45.17;101084.13;5025950;28;20025;-46
2022/04/30 07:23:15;;;;;;;1.63;0.50;;;;;;;19.65;45.32;101074.34;5025938;28;20029;-46
2022/04/30 07:25:40;;;;;;;0.70;0.32;;;;;;;19.66;45.18;101072.53;5026247;28;20025;-50
2022/04/30 07:28:06;;;;;;;1.55;0.40;;;;;;;19.67;45.17;101080.28;5025964;28;20032;-50
2022/04/30 07:30:32;;;;;;;1.65;0.50;;;;;;;19.65;45.25;101070.91;5026231;28;20037;-43
2022/04/30 07:32:57;;;;;;;1.05;0.50;;;;;;;19.66;45.29;101080.47;5029490;28;20030;-45
2022/04/30 07:35:22;;;;;;;1.15;0.50;;;;;;;19.65;45.47;101071.72;5030077;28;20029;-45
2022/04/30 07:37:48;;;;;;;0.80;0.50;;;;;;;19.65;45.38;101066.44;5029412;28;20501;-45
2022/04/30 07:40:13;;;;;;;0.70;0.40;;;;;;;19.65;45.37;101068.25;5029562;28;20116;-46
2022/04/30 07:42:38;;;;;;;2.97;0.60;;;;;;;19.65;45.27;101062.97;5029335;28;20029;-48
2022/04/30 07:45:04;;;;;;;1.13;0.40;;;;;;;19.65;45.56;101063.78;5029615;28;20036;-50
2022/04/30 07:47:30;;;;;;;1.88;0.30;;;;;;;19.65;45.50;101066.44;5027490;28;20143;-47
2022/04/30 07:49:55;;;;;;;1.27;0.50;;;;;;;19.65;45.98;101055.84;5027283;28;20041;-44
2022/04/30 07:52:21;;;;;;;2.75;0.40;;;;;;;19.74;47.21;101064.47;5029132;28;20095;-44
2022/04/30 07:54:47;;;;;;;2.95;0.70;;;;;;;19.82;48.01;101059.88;5028456;28;20775;-53
2022/04/30 07:57:12;;;;;;;3.15;2.22;;;;;;;19.91;51.27;101054.44;5028609;28;20519;-46
2022/04/30 07:59:37;;;;;;;6.53;1.20;;;;;;;20.00;51.15;101045.34;5026978;28;20037;-47
2022/04/30 08:02:04;;;;;;;4.53;1.15;;;;;;;20.02;50.91;101049.44;5026662;28;20566;-45
2022/04/30 08:04:30;;;;;;;2.38;1.38;;;;;;;19.98;50.06;101053.47;5029522;28;20018;-46
2022/04/30 08:06:55;;;;;;;4.45;0.85;;;;;;;19.96;49.11;101047.56;5023056;28;20700;-44
2022/04/30 08:09:20;;;;;;;1.88;0.70;;;;;;;19.95;49.26;101045.94;5025323;28;20045;-44
2022/04/30 08:11:47;;;;;;;1.15;0.40;;;;;;;19.94;49.38;101041.66;5025567;28;20050;-55
2022/04/30 08:14:12;;;;;;;3.08;0.47;;;;;;;19.93;49.02;101045.28;5020918;28;20420;-46
2022/04/30 08:16:38;;;;;;;1.88;0.50;;;;;;;19.91;48.89;101042.03;5022694;28;20040;-45
2022/04/30 08:19:03;;;;;;;1.35;0.40;;;;;;;19.91;48.94;101039.38;5028666;28;20021;-46
2022/04/30 08:21:29;;;;;;;2.42;0.52;;;;;;;19.92;48.73;101038.38;5027852;28;20170;-47
2022/04/30 08:23:54;;;;;;;4.22;0.50;;;;;;;19.89;49.08;101034.28;5024314;28;20036;-55
2022/04/30 08:26:19;;;;;;;4.82;0.68;;;;;;;19.92;48.64;101032.25;5026435;28;20167;-49
2022/04/30 08:28:45;;;;;;;2.47;0.80;;;;;;;19.91;47.32;101033.28;5024619;28;20037;-45
2022/04/30 08:31:10;;;;;;;2.85;0.60;;;;;;;19.87;45.71;101024.91;5025432;28;20056;-48
2022/04/30 08:33:37;;;;;;;1.83;0.52;;;;;;;19.87;44.98;101032.84;5008660;28;20044;-45
2022/04/30 08:36:03;;;;;;;1.73;0.60;;;;;;;19.86;43.72;101029.38;5017716;28;20056;-45
2022/04/30 08:38:28;;;;;;;1.42;0.75;;;;;;;19.84;43.09;101028.78;5027119;28;20063;-45
2022/04/30 08:40:54;;;;;;;1.10;0.68;;;;;;;19.84;42.75;101023.50;5027519;28;20038;-45
2022/04/30 08:43:20;;;;;;;1.30;0.68;;;;;;;19.84;42.74;101017.38;5026829;28;20060;-47
2022/04/30 08:45:46;;;;;;;5.05;0.82;;;;;;;19.85;43.45;101011.06;5025213;28;20037;-57
2022/04/30 08:48:14;;;;;;;3.83;0.40;;;;;;;19.86;43.75;101016.16;5025881;28;20206;-42
2022/04/30 08:50:42;;;;;;;2.75;0.50;;;;;;;19.85;42.82;101008.41;5027392;28;20045;-43
2022/04/30 08:53:07;;;;;;;2.42;0.70;;;;;;;19.84;42.51;101004.97;5026236;28;20034;-44
2022/04/30 08:55:33;;;;;;;1.83;0.40;;;;;;;19.84;42.67;101004.16;5027306;28;20037;-47
2022/04/30 08:57:59;;;;;;;1.98;1.08;;;;;;;19.80;40.05;101003.72;5021783;28;20030;-44
2022/04/30 09:00:25;;;;;;;5.15;0.95;;;;;;;19.76;38.72;100999.81;5026674;28;20025;-45
2022/04/30 09:02:52;;;;;;;3.45;0.82;;;;;;;19.76;38.41;100996.38;5027792;28;20498;-44
2022/04/30 09:05:18;;;;;;;1.40;0.70;;;;;;;19.73;37.79;100996.75;5026046;28;20060;-53
2022/04/30 09:07:53;;;;;;;2.75;1.00;;;;;;;19.73;37.37;100999.41;5036057;28;20025;-44
2022/04/30 09:10:37;;;;;;;5.85;1.35;;;;;;;19.74;37.64;100993.91;5023218;28;20033;-44
2022/04/30 09:13:17;;;;;;;3.55;0.93;;;;;;;19.76;37.93;100991.09;5025997;28;20339;-44
2022/04/30 09:15:45;;;;;;;6.97;0.70;;;;;;;19.79;38.57;100983.59;5025595;28;20048;-43
2022/04/30 09:18:13;;;;;;;4.13;0.40;;;;;;;19.82;38.65;100982.38;5024645;28;20164;-43
2022/04/30 09:20:56;;;;;;;2.75;0.55;;;;;;;19.78;39.25;100976.66;5023974;28;20517;-42
2022/04/30 09:23:26;;;;;;;4.50;0.63;;;;;;;19.79;39.59;100972.19;5023282;28;20049;-45
2022/04/30 09:25:54;;;;;;;5.60;0.77;;;;;;;19.80;39.69;100977.28;5027596;28;20537;-46
2022/04/30 09:28:29;;;;;;;1.92;0.70;;;;;;;19.79;39.82;100967.72;5025409;28;20029;-43
2022/04/30 09:31:05;;;;;;;5.43;0.90;;;;;;;19.77;40.08;100966.28;5022517;28;20025;-42
2022/04/30 09:33:30;;;;;;;2.70;0.82;;;;;;;19.78;40.15;100946.75;5019752;28;20037;-46
2022/04/30 09:38:50;;;;;;;5.07;0.82;;;;;;;19.77;40.86;100942.47;5020499;28;20048;-47
2022/04/30 09:41:21;;;;;;;10.40;1.15;;;;;;;19.76;40.98;100939.03;5021753;28;20050;-46
2022/04/30 09:43:46;;;;;;;3.45;0.70;;;;;;;19.78;41.38;100936.19;5025122;28;20415;-44
2022/04/30 09:46:12;;;;;;;2.65;0.60;;;;;;;19.78;41.45;100938.84;5025063;28;20040;-44
2022/04/30 09:54:06;;;;;;;1.25;0.70;;;;;;;19.78;41.62;100925.63;5024691;28;20091;-43
2022/04/30 09:56:36;;;;;;;4.63;0.68;;;;;;;19.78;41.57;100920.31;5026940;28;20508;-42
2022/04/30 09:59:13;;;;;;;3.42;0.77;;;;;;;19.77;41.49;100910.75;5026335;28;20046;-42
2022/04/30 10:01:40;;;;;;;4.03;0.70;;;;;;;19.79;41.77;100911.38;5026693;28;20026;-43
2022/04/30 10:04:11;;;;;;;4.43;0.60;;;;;;;19.77;41.88;100908.94;5026952;28;20055;-43
2022/04/30 10:06:44;;;;;;;2.90;0.73;;;;;;;19.77;41.72;100908.13;5026863;28;20048;-42
2022/04/30 10:09:17;;;;;;;2.00;0.70;;;;;;;19.77;41.91;100894.91;5024345;28;20407;-44
2022/04/30 10:12:04;;;;;;;2.13;0.80;;;;;;;19.77;42.00;100892.25;5026581;28;20049;-41
2022/04/30 10:14:33;;;;;;;3.20;0.70;;;;;;;19.77;42.14;100892.25;5026662;28;20066;-43
2022/04/30 10:17:13;;;;;;;4.55;0.98;;;;;;;19.75;41.96;100884.50;5025524;28;20045;-43
2022/04/30 10:19:42;;;;;;;2.38;1.17;;;;;;;19.74;42.16;100888.16;5026430;28;20025;-44
2022/04/30 10:22:16;;;;;;;4.75;0.60;;;;;;;19.74;42.09;100887.34;5026554;28;20041;-42
2022/04/30 10:24:49;;;;;;;1.50;0.60;;;;;;;19.76;42.25;100874.75;5022752;28;20500;-45
2022/04/30 10:27:16;;;;;;;1.65;0.65;;;;;;;19.76;42.31;100874.75;5026641;28;20057;-43
2022/04/30 10:29:58;;;;;;;5.47;1.10;;;;;;;19.74;42.60;100874.13;5026281;28;20025;-43
2022/04/30 10:32:24;;;;;;;2.45;0.55;;;;;;;19.73;42.45;100865.38;5025630;28;20044;-43
2022/04/30 10:34:53;;;;;;;3.13;0.73;;;;;;;19.74;42.81;100871.50;5026059;28;20146;-43
2022/04/30 10:37:35;;;;;;;1.63;0.63;;;;;;;19.74;42.75;100866.19;5026377;28;20032;-43
2022/04/30 10:40:04;;;;;;;1.45;0.40;;;;;;;19.74;42.81;100860.91;5025426;28;20431;-44
2022/04/30 10:42:40;;;;;;;2.58;0.95;;;;;;;19.75;42.75;100859.91;5026262;28;20530;-45
2022/04/30 10:45:12;;;;;;;2.30;0.85;;;;;;;19.74;43.21;100850.34;5026460;28;20030;-44
2022/04/30 10:47:55;;;;;;;4.93;0.50;;;;;;;19.71;42.82;100856.00;5026294;28;20037;-43
2022/04/30 10:50:21;;;;;;;1.50;0.60;;;;;;;19.73;42.91;100851.34;5025618;28;20133;-43
2022/04/30 10:52:48;;;;;;;1.15;0.70;;;;;;;19.75;43.05;100847.50;5026242;28;20481;-42
2022/04/30 10:55:14;;;;;;;1.50;0.57;;;;;;;19.76;43.17;100843.03;5025282;28;20057;-45
2022/04/30 10:57:44;;;;;;;5.25;0.75;;;;;;;19.76;43.03;100837.75;5026166;28;20117;-44
2022/04/30 11:00:10;;;;;;;2.08;0.63;;;;;;;19.78;43.07;100833.09;5025436;28;20747;-44
2022/04/30 11:02:36;;;;;;;1.45;0.40;;;;;;;19.80;43.20;100831.06;5026268;28;20083;-45
2022/04/30 11:05:02;;;;;;;2.50;0.63;;;;;;;19.81;43.05;100824.75;5026531;28;20029;-45
2022/04/30 11:07:29;;;;;;;2.75;0.50;;;;;;;19.82;43.11;100823.75;5030211;28;20060;-43
2022/04/30 11:09:55;;;;;;;2.83;0.50;;;;;;;19.82;43.23;100821.91;5027793;28;20029;-44
2022/04/30 11:12:21;;;;;;;1.80;0.47;;;;;;;19.83;43.02;100815.63;5029823;28;20049;-41
2022/04/30 11:14:47;;;;;;;3.65;0.50;;;;;;;19.83;43.29;100809.50;5027377;28;20033;-44
2022/04/30 11:17:12;;;;;;;1.88;0.60;;;;;;;19.84;43.41;100808.50;5029970;28;20025;-44
2022/04/30 11:19:41;;;;;;;0.80;0.40;;;;;;;19.83;43.41;100799.75;5029616;28;20389;-44
2022/04/30 11:22:12;;;;;;;1.60;0.68;;;;;;;19.83;43.65;100798.94;5028680;28;20048;-43
2022/04/30 11:24:38;;;;;;;2.05;0.50;;;;;;;19.82;43.73;100790.19;5028070;28;20508;-41
2022/04/30 11:27:05;;;;;;;2.42;0.45;;;;;;;19.83;43.69;100793.66;5027626;28;20041;-45
2022/04/30 11:29:32;;;;;;;1.80;0.40;;;;;;;19.81;43.67;100787.75;5029865;28;20080;-44
2022/04/30 11:31:59;;;;;;;4.32;1.40;;;;;;;19.81;43.71;100780.63;5027560;28;20138;-43
2022/04/30 11:34:25;;;;;;;1.17;0.65;;;;;;;19.81;43.81;100779.81;5029708;28;20021;-44
2022/04/30 11:36:53;;;;;;;1.08;0.40;;;;;;;19.81;43.85;100782.47;5029730;28;20021;-41
2022/04/30 11:39:19;;;;;;;1.67;0.40;;;;;;;19.81;44.07;100783.28;5026246;28;20766;-45
2022/04/30 11:41:50;;;;;;;1.02;0.40;;;;;;;19.81;44.05;100769.25;5029543;28;20022;-46
2022/04/30 11:44:18;;;;;;;2.90;0.40;;;;;;;19.80;44.18;100762.31;5029560;28;20094;-44
2022/04/30 11:46:47;;;;;;;1.27;0.60;;;;;;;19.80;44.01;100764.97;5029732;28;20040;-46
2022/04/30 11:49:14;;;;;;;1.70;0.50;;;;;;;19.79;44.01;100756.22;5028255;28;20050;-41
2022/04/30 11:51:41;;;;;;;3.97;0.68;;;;;;;19.81;44.21;100761.31;5029282;28;20124;-43
2022/04/30 11:54:08;;;;;;;1.38;0.40;;;;;;;19.80;44.33;100760.50;5028182;28;20046;-42
2022/04/30 11:56:35;;;;;;;1.70;0.45;;;;;;;19.80;44.28;100757.84;5029085;28;20033;-42
2022/04/30 11:59:01;;;;;;;1.73;0.50;;;;;;;19.80;44.18;100749.09;5026928;28;20031;-42
2022/04/30 12:01:32;;;;;;;1.60;0.45;;;;;;;19.80;44.34;100755.19;5028339;28;20249;-41
2022/04/30 12:04:08;;;;;;;2.60;0.40;;;;;;;19.79;44.26;100745.66;5029157;28;20048;-44
2022/04/30 12:06:38;;;;;;;1.77;0.40;;;;;;;19.81;44.17;100740.16;5028805;28;20034;-42